Flight Track Log - Related Links

Times and Time Zones

All times are in EDT time to prevent confusion due to time zone crossing. See the SKW6306 flight status page for this flight to view local times or setup timezone preferences in your user account.

Time Position Orientation Groundspeed Altitude Reporting Facility
EDT Latitude Longitude Course Direction KTS MPH feet Rate Location/Type
Wed 05:44:13 PM 52.1667 -106.8167 270° West 170 196 3,900  Level Winnipeg Center
Wed 05:45:13 PM 52.1500 -106.9167 255° West 200 230 6,400 2,300 Climbing Winnipeg Center
Wed 05:46:00 PM 51.8315 -106.8829 199° South  Level FlightAware Approximate
Wed 05:46:13 PM 52.1000 -106.9333 192° South 250 288 8,500  Level Winnipeg Center
Wed 05:47:00 PM 51.7179 -106.9411 197° South  Level FlightAware Approximate
Wed 05:47:13 PM 52.0167 -106.9667 194° South 270 311 10,800  Level Winnipeg Center
Wed 05:48:00 PM 51.6048 -106.9952 212° Southwest  Level FlightAware Approximate
Wed 05:48:13 PM 51.9500 -107.0000 197° South 280 322 13,100  Level Winnipeg Center
Wed 05:49:13 PM 51.8500 -107.0500 197° South 290 334 15,200 1,950 Climbing Winnipeg Center
Wed 05:50:13 PM 51.7833 -107.0833 197° South 290 334 17,000 1,700 Climbing Winnipeg Center
Wed 05:51:13 PM 51.7000 -107.1167 194° South 310 357 18,600 1,200 Climbing Winnipeg Center
Wed 05:52:13 PM 51.6167 -107.1500 194° South 330 380 19,400 700 Climbing Winnipeg Center
Wed 05:53:13 PM 51.5000 -107.2000 195° South 360 414 20,000 700 Climbing Winnipeg Center
Wed 05:54:13 PM 51.4167 -107.2500 201° Southwest 380 437 20,800 1,050 Climbing Winnipeg Center
Wed 05:55:13 PM 51.3000 -107.3000 195° South 390 449 22,100 1,400 Climbing Winnipeg Center
Wed 05:56:13 PM 51.2167 -107.3333 194° South 390 449 23,600 1,150 Climbing Winnipeg Center
Wed 05:57:13 PM 51.1000 -107.3833 195° South 380 437 24,400 850 Climbing Winnipeg Center
Wed 05:58:13 PM 51.0000 -107.4167 192° South 390 449 25,300 800 Climbing Winnipeg Center
Wed 05:59:13 PM 50.9000 -107.4667 198° South 390 449 26,000 600 Climbing Winnipeg Center
Wed 06:00:13 PM 50.7667 -107.5167 193° South 400 460 26,500 700 Climbing Winnipeg Center
Wed 06:01:13 PM 50.6667 -107.5500 192° South 400 460 27,400 750 Climbing Winnipeg Center
Wed 06:02:13 PM 50.5667 -107.6000 198° South 400 460 28,000 550 Climbing Winnipeg Center
Wed 06:03:13 PM 50.4500 -107.6333 190° South 410 472 28,500 700 Climbing Winnipeg Center
Wed 06:04:13 PM 50.3500 -107.6833 198° South 400 460 29,400 857 Climbing Winnipeg Center
Wed 06:05:12 PM 50.2500 -107.7167 192° South 390 449 30,200 655 Climbing Winnipeg Center
Wed 06:06:12 PM 50.1167 -107.7500 189° South 400 460 30,700 500 Climbing Winnipeg Center
Wed 06:07:12 PM 50.0167 -107.7500 180° South 400 460 31,200 500 Climbing Winnipeg Center
Wed 06:08:12 PM 49.9000 -107.7667 185° South 400 460 31,700 500 Climbing Winnipeg Center
Wed 06:09:12 PM 49.8000 -107.7667 180° South 400 460 32,200 550 Climbing Winnipeg Center
Wed 06:10:12 PM 49.6833 -107.8000 190° South 400 460 32,800 400 Climbing Winnipeg Center
Wed 06:11:12 PM 49.5833 -107.8000 180° South 390 449 33,000 100 Climbing Winnipeg Center
Wed 06:12:12 PM 49.4833 -107.8000 180° South 400 460 33,000  Level Winnipeg Center
Wed 06:13:12 PM 49.3667 -107.8333 191° South 400 460 33,000  Level Winnipeg Center
Wed 06:14:12 PM 49.2500 -107.8333 180° South 410 472 33,000  Level Winnipeg Center
Wed 06:15:12 PM 49.1333 -107.8500 185° South 410 472 33,000  Level Winnipeg Center
Wed 06:16:12 PM 49.0167 -107.8500 180° South 410 472 33,000  Level Winnipeg Center
Wed 06:17:12 PM 48.9000 -107.8833 191° South 420 483 33,000  Level Winnipeg Center
Wed 06:18:11 PM 48.8106 -107.8606 170° South 415 478 33,000  Level Salt Lake Center
Wed 06:19:13 PM 48.6939 -107.8725 184° South 418 481 33,000  Level Salt Lake Center
Wed 06:20:15 PM 48.5789 -107.8858 184° South 417 480 33,000  Level Salt Lake Center
Wed 06:21:17 PM 48.4631 -107.8981 184° South 417 480 33,000  Level Salt Lake Center
Wed 06:22:19 PM 48.3469 -107.9086 183° South 418 481 33,000  Level Salt Lake Center
Wed 06:23:21 PM 48.2275 -107.8778 170° South 430 495 33,000  Level Salt Lake Center
Wed 06:24:23 PM 48.1075 -107.8458 170° South 436 502 33,000  Level Salt Lake Center
Wed 06:25:25 PM 47.9614 -107.8061 170° South 442 509 33,000  Level Salt Lake Center
Wed 06:26:27 PM 47.8392 -107.7739 170° South 443 510 33,000  Level Salt Lake Center
Wed 06:27:29 PM 47.7181 -107.7408 170° South 444 511 33,000  Level Salt Lake Center
Wed 06:28:31 PM 47.5964 -107.7086 170° South 444 511 33,000  Level Salt Lake Center
Wed 06:29:33 PM 47.4753 -107.6750 169° South 444 511 33,000  Level Salt Lake Center
Wed 06:30:35 PM 47.3531 -107.6442 170° South 445 512 33,000  Level Salt Lake Center
Wed 06:31:38 PM 47.2069 -107.6058 170° South 443 510 33,000  Level Salt Lake Center
Wed 06:32:40 PM 47.0994 -107.5769 170° South 445 512 33,000  Level Salt Lake Center
Wed 06:33:42 PM 46.9536 -107.5392 170° South 445 512 33,000  Level Salt Lake Center
Wed 06:34:44 PM 46.8331 -107.5083 170° South 444 511 33,000  Level Salt Lake Center
Wed 06:35:46 PM 46.7125 -107.4769 170° South 442 509 33,000  Level Salt Lake Center
Wed 06:36:48 PM 46.5906 -107.4453 170° South 444 511 33,000  Level Salt Lake Center
Wed 06:37:50 PM 46.4656 -107.4131 170° South 448 516 33,000  Level Salt Lake Center
Wed 06:38:52 PM 46.3281 -107.3781 170° South 445 512 33,000  Level Salt Lake Center
Wed 06:39:54 PM 46.1975 -107.3447 170° South 445 512 33,000  Level Salt Lake Center
Wed 06:40:56 PM 46.0769 -107.3144 170° South 446 513 33,000  Level Salt Lake Center
Wed 06:41:58 PM 45.9461 -107.2808 170° South 444 511 33,000  Level Salt Lake Center
Wed 06:43:00 PM 45.8264 -107.2522 171° South 442 509 33,000  Level Salt Lake Center
Wed 06:44:01 PM 45.6964 -107.2194 170° South 443 510 33,000  Level Salt Lake Center
Wed 06:45:03 PM 45.5767 -107.1906 170° South 440 506 33,000  Level Salt Lake Center
Wed 06:46:05 PM 45.4519 -107.1592 170° South 438 504 33,000  Level Salt Lake Center
Wed 06:47:09 PM 45.3333 -107.1353 172° South 436 502 33,000  Level Salt Lake Center
Wed 06:48:09 PM 45.2083 -107.1017 169° South 438 504 33,000  Level Salt Lake Center
Wed 06:49:11 PM 45.0922 -107.0742 171° South 441 507 33,000  Level Salt Lake Center
Wed 06:50:13 PM 44.9572 -107.0417 170° South 442 509 33,000  Level Salt Lake Center
Wed 06:51:15 PM 44.8403 -107.0147 171° South 443 510 33,000 -242 Level Salt Lake Center
Wed 06:52:17 PM 44.7056 -106.9808 170° South 442 509 32,500 -484 Descending Salt Lake Center
Wed 06:53:19 PM 44.5842 -106.9511 170° South 456 525 32,000 -242 Descending Salt Lake Center
Wed 06:54:21 PM 44.4419 -106.9183 171° South 462 532 32,000  Level Salt Lake Center
Wed 06:55:22 PM 44.3244 -106.8908 170° South 452 520 32,000  Level Salt Lake Center
Wed 06:56:24 PM 44.1919 -106.8594 170° South 437 503 32,000  Level Salt Lake Center
Wed 06:57:26 PM 44.0794 -106.8333 171° South 430 495 32,000  Level Salt Lake Center
Wed 06:58:28 PM 43.9669 -106.8078 171° South 428 493 32,000  Level Salt Lake Center
Wed 06:59:30 PM 43.8344 -106.7758 170° South 433 498 32,000  Level Salt Lake Center
Wed 07:00:32 PM 43.7192 -106.7500 171° South 436 502 32,000  Level Salt Lake Center
Wed 07:01:34 PM 43.5850 -106.7192 171° South 439 505 32,000  Level Salt Lake Center
Wed 07:02:35 PM 43.4700 -106.6928 171° South 438 504 32,000  Level Salt Lake Center
Wed 07:03:37 PM 43.3361 -106.6619 170° South 437 503 32,000  Level Salt Lake Center
Wed 07:04:39 PM 43.2225 -106.6358 170° South 434 499 32,000  Level Salt Lake Center
Wed 07:05:41 PM 43.0894 -106.6072 171° South 434 499 32,000  Level Salt Lake Center
Wed 07:06:43 PM 42.9753 -106.5806 170° South 435 501 32,000  Level Salt Lake Center
Wed 07:08:05 PM 42.8022 -106.5403 170° South 437 503 32,000  Level Denver Center
Wed 07:09:07 PM 42.6864 -106.4864 161° South 462 532 32,000  Level Denver Center
Wed 07:10:09 PM 42.5603 -106.4108 156° South 449 517 32,000  Level Denver Center
Wed 07:11:11 PM 42.4519 -106.3467 156° South 446 513 32,000  Level Denver Center
Wed 07:12:13 PM 42.3236 -106.2733 157° South 449 517 32,000  Level Denver Center
Wed 07:13:15 PM 42.2142 -106.2097 157° South 449 517 32,000  Level Denver Center
Wed 07:14:17 PM 42.0878 -106.1353 156° South 446 513 32,000  Level Denver Center
Wed 07:15:19 PM 41.9775 -106.0722 157° South 450 518 32,000  Level Denver Center
Wed 07:16:21 PM 41.8703 -106.0100 157° South 443 510 32,000  Level Denver Center
Wed 07:17:23 PM 41.7464 -105.9394 157° South 436 502 32,000 -145 Level Denver Center
Wed 07:18:25 PM 41.6419 -105.8808 157° South 430 495 31,700 -823 Descending Denver Center
Wed 07:19:27 PM 41.5169 -105.8097 157° South 434 499 30,300 -1,210 Descending Denver Center
Wed 07:20:29 PM 41.4139 -105.7508 157° South 426 490 29,200 -1,210 Descending Denver Center
Wed 07:21:31 PM 41.2969 -105.6856 157° South 414 476 27,800 -1,065 Descending Denver Center
Wed 07:22:33 PM 41.1961 -105.6283 157° South 412 474 27,000 -390 Descending Denver Center
Wed 07:23:34 PM 41.0822 -105.5658 158° South 400 460 27,000  Level Denver Center
Wed 07:24:36 PM 40.9772 -105.5092 158° South 404 465 27,000 -290 Level Denver Center
Wed 07:25:38 PM 40.8697 -105.4469 156° South 419 482 26,400 -1,548 Descending Denver Center
Wed 07:26:40 PM 40.7647 -105.3889 157° South 412 474 23,800 -2,419 Descending Denver Center
Wed 07:27:42 PM 40.6753 -105.2972 142° Southeast 408 470 21,400 -2,371 Descending Denver Center
Wed 07:28:44 PM 40.5794 -105.1839 138° Southeast 385 443 18,900 -2,177 Descending Denver Center
Wed 07:29:46 PM 40.5072 -105.1028 139° Southeast 357 411 16,900 -1,920 Descending Denver Center
Wed 07:30:49 PM 40.4331 -105.0164 138° Southeast 331 381 14,900 -1,887 Descending Denver Center
Wed 07:31:50 PM 40.3775 -104.9247 128° Southeast 322 371 13,000 -1,805 Descending Denver Center
Wed 07:32:52 PM 40.3108 -104.8550 141° Southeast 304 350 11,200 -1,776 Descending Denver Center
Wed 07:33:55 PM 40.2250 -104.8181 162° South 298 343 9,300 -1,296 Descending Denver Center
Wed 07:34:57 PM 40.1536 -104.7844 160° South 274 315 8,500 -726 Descending Denver Center
Wed 07:35:59 PM 40.0856 -104.7497 159° South 247 284 7,800 -677 Descending Denver Center

Login

Don't have an account? Register now (free) for customized features, flight alerts, and more!